Time;durP1;ratioP1;P1;durP2;ratioP2;P2;SDS_P1;SDS_P2;PMS_P1;PMS_P2;Temp;Humidity;BMP_temperature;BMP_pressure;BME280_temperature;BME280_humidity;BME280_pressure;Samples;Min_cycle;Max_cycle;Signal;HPM_P1;HPM_P2
2023/01/05 00:01:05;;;;;;;0.75;0.70;;;;;;;10.43;100.00;98102.09;2489539;29;20070;-79
2023/01/05 00:02:21;;;;;;;0.75;0.60;;;;;;;10.48;100.00;98104.56;2489198;29;20050;-78
2023/01/05 00:03:37;;;;;;;0.68;0.50;;;;;;;10.40;100.00;98099.53;2489429;29;20053;-79
2023/01/05 00:04:52;;;;;;;0.85;0.63;;;;;;;10.39;100.00;98099.59;2489298;29;20066;-78
2023/01/05 00:06:14;;;;;;;1.95;0.60;;;;;;;10.45;100.00;98102.91;2489479;29;20058;-79
2023/01/05 00:07:29;;;;;;;1.15;0.60;;;;;;;10.47;100.00;98105.44;2489431;29;20422;-78
2023/01/05 00:08:46;;;;;;;0.73;0.63;;;;;;;10.37;100.00;98096.19;2489347;29;20050;-79
2023/01/05 00:10:01;;;;;;;0.50;0.47;;;;;;;10.31;100.00;98103.31;2489406;29;20516;-78
2023/01/05 00:22:49;;;;;;;0.55;0.40;;;;;;;10.10;100.00;98109.25;2468937;30;20047;-79
2023/01/05 00:24:04;;;;;;;0.52;0.52;;;;;;;10.07;100.00;98102.34;2469010;30;20078;-79
2023/01/05 00:25:21;;;;;;;0.52;0.50;;;;;;;10.08;100.00;98097.97;2483047;29;20481;-79
2023/01/05 00:26:37;;;;;;;0.60;0.60;;;;;;;10.20;100.00;98100.22;2488494;29;20494;-79
2023/01/05 00:27:53;;;;;;;1.45;0.77;;;;;;;10.26;100.00;98101.75;2488786;29;20047;-79
2023/01/05 00:29:08;;;;;;;0.60;0.60;;;;;;;10.20;100.00;98097.59;2489010;29;20521;-81
2023/01/05 00:30:32;;;;;;;0.90;0.70;;;;;;;10.22;100.00;98092.28;2489157;29;20111;-78
2023/01/05 00:31:47;;;;;;;0.60;0.43;;;;;;;10.28;100.00;98090.34;2489156;29;20052;-78
2023/01/05 00:33:03;;;;;;;0.52;0.52;;;;;;;10.23;100.00;98086.16;2488901;29;20058;-83
2023/01/05 00:34:18;;;;;;;0.77;0.77;;;;;;;10.28;100.00;98092.94;2489195;29;20054;-79
2023/01/05 00:35:34;;;;;;;1.35;0.65;;;;;;;10.28;100.00;98089.50;2489013;29;20479;-78
2023/01/05 00:36:50;;;;;;;0.35;0.35;;;;;;;10.19;100.00;98088.00;2488962;29;20073;-78
2023/01/05 00:38:06;;;;;;;0.80;0.52;;;;;;;10.17;100.00;98087.19;2489182;29;20107;-80
2023/01/05 00:39:21;;;;;;;0.85;0.60;;;;;;;10.18;100.00;98092.41;2488729;29;20082;-79
2023/01/05 00:40:37;;;;;;;0.47;0.47;;;;;;;10.17;100.00;98077.59;2489172;29;20117;-79
2023/01/05 00:41:53;;;;;;;1.05;0.60;;;;;;;10.26;100.00;98076.44;2488886;29;20057;-81
2023/01/05 00:43:08;;;;;;;1.38;0.80;;;;;;;10.31;100.00;98082.38;2489015;29;20073;-78
2023/01/05 00:44:24;;;;;;;0.90;0.65;;;;;;;10.21;100.00;98082.72;2489074;29;20058;-79
2023/01/05 00:45:40;;;;;;;1.45;0.50;;;;;;;10.22;100.00;98080.09;2488974;29;20084;-79
2023/01/05 00:46:55;;;;;;;0.68;0.50;;;;;;;10.16;100.00;98070.66;2488844;29;20262;-82
2023/01/05 00:48:11;;;;;;;2.65;0.77;;;;;;;10.09;100.00;98081.38;2489094;29;20624;-78
2023/01/05 00:49:27;;;;;;;1.08;0.60;;;;;;;10.31;100.00;98085.00;2488963;29;20100;-79
2023/01/05 00:50:42;;;;;;;0.50;0.50;;;;;;;10.26;100.00;98073.84;2489027;29;20183;-79
2023/01/05 00:51:58;;;;;;;0.47;0.32;;;;;;;10.31;100.00;98078.91;2489172;29;20111;-78
2023/01/05 00:53:13;;;;;;;1.33;0.70;;;;;;;10.39;100.00;98102.22;2488927;29;20058;-79
2023/01/05 00:54:29;;;;;;;1.52;0.43;;;;;;;10.40;100.00;98080.38;2488914;29;20053;-82
2023/01/05 00:55:55;;;;;;;1.88;0.52;;;;;;;10.30;100.00;98062.34;2488946;29;20073;-79
2023/01/05 00:57:12;;;;;;;1.08;0.60;;;;;;;10.44;100.00;98061.94;2488416;29;20082;-79
2023/01/05 00:58:27;;;;;;;0.75;0.40;;;;;;;10.55;100.00;98065.97;2489045;29;20145;-79
2023/01/05 00:59:43;;;;;;;0.70;0.70;;;;;;;10.57;100.00;98066.75;2489147;29;20059;-78
2023/01/05 01:00:58;;;;;;;0.52;0.52;;;;;;;10.55;100.00;98079.91;2488712;29;21116;-79
2023/01/05 01:02:14;;;;;;;1.38;0.50;;;;;;;10.74;100.00;98060.94;2478778;29;20177;-80
2023/01/05 01:03:29;;;;;;;0.40;0.40;;;;;;;10.61;100.00;98063.13;2482888;29;20509;-79
2023/01/05 01:04:45;;;;;;;0.35;0.35;;;;;;;10.60;100.00;98072.72;2488455;29;20062;-78
2023/01/05 01:06:01;;;;;;;0.30;0.30;;;;;;;10.49;100.00;98071.38;2488877;29;20062;-79
2023/01/05 01:07:16;;;;;;;0.93;0.47;;;;;;;10.56;100.00;98078.16;2489021;29;20054;-79
2023/01/05 01:08:32;;;;;;;0.65;0.50;;;;;;;10.56;100.00;98080.75;2489094;29;20054;-79
2023/01/05 01:09:48;;;;;;;0.30;0.20;;;;;;;10.42;100.00;98066.38;2478675;29;20088;-79
2023/01/05 01:11:08;;;;;;;0.30;0.30;;;;;;;10.54;100.00;98091.28;2482708;29;20173;-79
2023/01/05 01:12:23;;;;;;;1.13;0.57;;;;;;;10.54;100.00;98091.28;2488962;29;20620;-79
2023/01/05 01:13:39;;;;;;;0.40;0.40;;;;;;;10.51;100.00;98091.38;2488751;29;20062;-80
2023/01/05 01:14:54;;;;;;;0.40;0.40;;;;;;;10.50;100.00;98083.56;2488666;29;20058;-82
2023/01/05 01:16:13;;;;;;;0.80;0.60;;;;;;;10.56;100.00;98089.44;2488603;29;20076;-81
2023/01/05 01:17:30;;;;;;;0.40;0.40;;;;;;;10.64;100.00;98080.50;2488348;29;20111;-78
2023/01/05 01:18:46;;;;;;;0.73;0.50;;;;;;;10.56;100.00;98093.84;2478429;29;20063;-79
2023/01/05 01:20:01;;;;;;;0.63;0.40;;;;;;;10.47;100.00;98092.38;2482706;29;20054;-79
2023/01/05 01:21:17;;;;;;;2.08;0.65;;;;;;;10.44;100.00;98084.63;2488878;29;20096;-78
2023/01/05 01:22:33;;;;;;;1.10;0.40;;;;;;;10.43;100.00;98090.75;2488658;29;20058;-79
2023/01/05 01:23:48;;;;;;;5.25;0.60;;;;;;;10.33;100.00;98090.19;2488737;29;20054;-82
2023/01/05 01:25:04;;;;;;;0.40;0.40;;;;;;;10.37;100.00;98085.72;2488662;29;20065;-79
2023/01/05 01:26:20;;;;;;;1.25;0.40;;;;;;;10.40;100.00;98110.00;2488598;29;20157;-78
2023/01/05 01:27:36;;;;;;;0.45;0.40;;;;;;;10.26;100.00;98080.81;2488584;29;20145;-78
2023/01/05 01:28:51;;;;;;;1.85;0.60;;;;;;;10.16;100.00;98082.88;2488786;29;20058;-78
2023/01/05 01:30:07;;;;;;;0.93;0.50;;;;;;;10.18;100.00;98094.16;2488613;29;20516;-79
2023/01/05 01:31:23;;;;;;;0.50;0.50;;;;;;;10.30;100.00;98090.28;2488448;29;20093;-80
2023/01/05 01:32:39;;;;;;;2.63;0.50;;;;;;;10.21;100.00;98101.91;2488961;29;20054;-80
2023/01/05 01:33:54;;;;;;;0.60;0.47;;;;;;;10.16;100.00;98101.19;2488593;29;20046;-79
2023/01/05 01:35:10;;;;;;;0.77;0.40;;;;;;;10.15;100.00;98096.88;2478128;29;20575;-78
2023/01/05 01:36:25;;;;;;;0.93;0.50;;;;;;;10.06;100.00;98098.00;2482415;29;20058;-78
2023/01/05 01:37:41;;;;;;;0.90;0.47;;;;;;;10.06;100.00;98091.91;2488708;29;20129;-79
2023/01/05 01:38:57;;;;;;;1.00;0.90;;;;;;;10.14;100.00;98088.19;2487984;29;20065;-78
2023/01/05 01:40:13;;;;;;;0.43;0.43;;;;;;;10.03;100.00;98087.66;2488683;29;20078;-81
2023/01/05 01:41:28;;;;;;;1.02;0.50;;;;;;;10.22;100.00;98080.09;2488721;29;20058;-78
2023/01/05 01:42:44;;;;;;;0.93;0.50;;;;;;;10.24;100.00;98075.66;2488533;29;20058;-79
2023/01/05 01:43:59;;;;;;;0.75;0.50;;;;;;;10.12;100.00;98071.66;2488642;29;20390;-78
2023/01/05 01:45:21;;;;;;;0.47;0.30;;;;;;;10.21;100.00;98081.00;2488493;29;20479;-78
2023/01/05 01:46:37;;;;;;;0.88;0.30;;;;;;;10.35;100.00;98084.91;2488235;29;20077;-78
2023/01/05 01:47:59;;;;;;;1.35;0.30;;;;;;;10.06;100.00;98082.31;2488364;29;20063;-78
2023/01/05 01:49:15;;;;;;;0.93;0.50;;;;;;;10.15;100.00;98078.56;2488594;29;20050;-78
2023/01/05 01:50:40;;;;;;;1.00;0.50;;;;;;;10.22;100.00;98080.09;2488499;29;20086;-78
2023/01/05 01:51:56;;;;;;;1.20;0.30;;;;;;;10.32;100.00;98081.47;2488448;29;20101;-80
2023/01/05 01:53:19;;;;;;;1.42;0.40;;;;;;;10.22;100.00;98074.84;2488418;29;20054;-78
2023/01/05 01:54:35;;;;;;;0.95;0.50;;;;;;;10.32;100.00;98078.00;2488476;29;20058;-78
2023/01/05 01:55:52;;;;;;;0.47;0.40;;;;;;;10.28;100.00;98071.19;2488190;29;20054;-78
2023/01/05 01:57:10;;;;;;;2.58;0.60;;;;;;;10.28;100.00;98073.78;2488089;29;20070;-79
2023/01/05 01:58:29;;;;;;;1.20;0.60;;;;;;;10.17;100.00;98069.75;2488663;29;20058;-79
2023/01/05 01:59:44;;;;;;;2.88;0.52;;;;;;;10.35;100.00;98069.22;2488080;29;20149;-78
2023/01/05 02:01:00;;;;;;;0.70;0.40;;;;;;;10.36;100.00;98076.16;2488035;29;20582;-78
2023/01/05 02:02:17;;;;;;;2.42;0.50;;;;;;;10.36;100.00;98077.00;2487799;29;20064;-79
2023/01/05 02:03:33;;;;;;;0.38;0.38;;;;;;;10.47;100.00;98083.69;2488361;29;20054;-79
2023/01/05 02:04:49;;;;;;;1.58;0.40;;;;;;;10.41;100.00;98076.88;2487707;29;20054;-84
2023/01/05 02:06:05;;;;;;;0.60;0.40;;;;;;;10.45;100.00;98081.09;2488019;29;20664;-78
2023/01/05 02:07:24;;;;;;;0.60;0.47;;;;;;;10.41;100.00;98075.13;2488347;29;20058;-79
2023/01/05 02:08:39;;;;;;;2.47;0.70;;;;;;;10.60;100.00;98074.50;2488270;29;20086;-79
2023/01/05 02:09:55;;;;;;;1.38;0.40;;;;;;;10.66;100.00;98066.44;2488081;29;20050;-78
2023/01/05 02:11:13;;;;;;;2.80;0.50;;;;;;;10.50;100.00;98066.13;2488324;29;20051;-79
2023/01/05 02:12:42;;;;;;;2.05;0.50;;;;;;;10.52;100.00;98068.66;2488074;29;20141;-79
2023/01/05 02:14:20;;;;;;;2.20;0.60;;;;;;;10.58;100.00;98077.16;2488566;29;20085;-79
2023/01/05 02:15:43;;;;;;;1.95;0.60;;;;;;;10.44;100.00;98074.16;2487972;29;20046;-78
2023/01/05 02:17:23;;;;;;;0.40;0.40;;;;;;;10.49;100.00;98082.72;2488087;29;20098;-78
2023/01/05 02:18:55;;;;;;;3.28;0.45;;;;;;;10.42;100.00;98083.81;2488086;29;20061;-79
2023/01/05 02:20:24;;;;;;;0.65;0.40;;;;;;;10.52;100.00;98071.28;2488113;29;20050;-79
2023/01/05 02:22:17;;;;;;;0.35;0.35;;;;;;;10.51;100.00;98074.81;2488170;29;20057;-79
2023/01/05 02:24:08;;;;;;;0.70;0.60;;;;;;;10.43;100.00;98075.94;2488151;29;20078;-80
2023/01/05 02:25:26;;;;;;;0.50;0.30;;;;;;;10.40;100.00;98067.28;2447264;30;20473;-80
2023/01/05 02:27:23;;;;;;;0.68;0.45;;;;;;;10.39;100.00;98055.94;2477947;29;20134;-79
2023/01/05 02:28:42;;;;;;;0.82;0.40;;;;;;;10.39;100.00;98068.19;2487421;29;20054;-79
2023/01/05 02:30:27;;;;;;;0.70;0.40;;;;;;;10.38;100.00;98063.88;2488010;29;20150;-78
2023/01/05 02:31:52;;;;;;;0.63;0.43;;;;;;;10.31;100.00;98068.47;2488419;29;20060;-79
2023/01/05 02:33:19;;;;;;;3.50;0.90;;;;;;;10.35;100.00;98056.97;2488329;29;20649;-80
2023/01/05 02:34:46;;;;;;;0.90;0.63;;;;;;;10.09;100.00;98056.06;2488448;29;20074;-79
2023/01/05 02:36:23;;;;;;;0.60;0.40;;;;;;;10.09;100.00;98058.69;2488183;29;20054;-79
2023/01/05 02:37:47;;;;;;;0.60;0.25;;;;;;;9.97;100.00;98062.56;2488342;29;20115;-81
2023/01/05 02:39:09;;;;;;;1.33;0.30;;;;;;;10.02;100.00;98068.47;2488083;29;20188;-78
2023/01/05 02:40:37;;;;;;;0.70;0.50;;;;;;;9.96;100.00;98068.69;2488326;29;20498;-79
2023/01/05 02:41:58;;;;;;;0.70;0.40;;;;;;;9.98;100.00;98063.38;2487992;29;21014;-79
2023/01/05 02:43:19;;;;;;;1.40;0.60;;;;;;;10.08;100.00;98061.34;2488259;29;20837;-78
2023/01/05 02:44:35;;;;;;;2.25;0.47;;;;;;;9.95;100.00;98055.66;2488040;29;20116;-78
2023/01/05 02:45:50;;;;;;;0.40;0.40;;;;;;;10.03;100.00;98053.66;2488325;29;20058;-78
2023/01/05 02:47:27;;;;;;;1.10;0.50;;;;;;;9.99;100.00;98060.75;2488210;29;20051;-77
2023/01/05 02:48:48;;;;;;;2.30;0.50;;;;;;;9.91;100.00;98064.50;2487942;29;20054;-78
2023/01/05 02:50:09;;;;;;;1.15;0.60;;;;;;;9.88;100.00;98063.69;2487722;29;20508;-78
2023/01/05 02:51:37;;;;;;;3.45;0.73;;;;;;;9.89;100.00;98059.31;2487673;29;20054;-77
2023/01/05 02:53:06;;;;;;;0.70;0.50;;;;;;;10.09;100.00;98052.59;2488027;29;20081;-78
2023/01/05 02:54:33;;;;;;;1.27;0.68;;;;;;;10.02;100.00;98044.94;2487551;29;20062;-78
2023/01/05 02:55:59;;;;;;;0.93;0.70;;;;;;;10.04;100.00;98047.53;2487874;29;20137;-79
2023/01/05 02:57:46;;;;;;;2.38;0.60;;;;;;;10.06;100.00;98040.47;2487245;29;20830;-77
2023/01/05 02:59:08;;;;;;;2.47;0.60;;;;;;;10.09;100.00;98032.53;2488011;29;20077;-77
2023/01/05 03:00:29;;;;;;;0.93;0.57;;;;;;;10.07;100.00;98033.50;2487976;29;20619;-77
2023/01/05 03:01:50;;;;;;;0.63;0.60;;;;;;;10.08;100.00;98037.81;2487958;29;20133;-78
2023/01/05 03:03:17;;;;;;;1.48;0.60;;;;;;;9.97;100.00;98028.56;2488053;29;20519;-78
2023/01/05 03:04:45;;;;;;;1.05;0.40;;;;;;;9.93;100.00;98044.38;2487866;29;20050;-77
2023/01/05 03:06:10;;;;;;;2.30;0.68;;;;;;;9.74;100.00;98027.50;2488002;29;20118;-82
2023/01/05 03:07:32;;;;;;;1.80;0.30;;;;;;;9.95;100.00;98024.25;2487689;29;20086;-83
2023/01/05 03:08:53;;;;;;;1.13;0.60;;;;;;;10.01;100.00;98019.69;2488203;29;20050;-78
2023/01/05 03:13:40;;;;;;;0.47;0.47;;;;;;;9.90;100.00;98016.56;2487765;29;20517;-81
2023/01/05 03:15:02;;;;;;;0.80;0.40;;;;;;;9.89;100.00;98013.13;2487910;29;20241;-79
2023/01/05 03:16:24;;;;;;;0.77;0.50;;;;;;;9.95;100.00;98014.69;2487875;29;20137;-77
2023/01/05 03:17:49;;;;;;;0.57;0.45;;;;;;;9.96;100.00;98010.28;2487484;29;20047;-77
2023/01/05 03:20:52;;;;;;;0.73;0.40;;;;;;;9.90;100.00;98006.09;2487716;29;20366;-77
2023/01/05 03:36:01;;;;;;;0.95;0.40;;;;;;;10.14;100.00;98003.59;2487398;29;20055;-78
2023/01/05 03:37:23;;;;;;;0.52;0.30;;;;;;;10.01;100.00;98009.22;2487314;29;20062;-78
2023/01/05 03:38:46;;;;;;;0.95;0.60;;;;;;;10.14;100.00;98001.84;2487519;29;20591;-77
2023/01/05 03:40:06;;;;;;;0.50;0.40;;;;;;;10.06;100.00;98013.44;2487099;29;20478;-79
2023/01/05 03:41:22;;;;;;;0.40;0.40;;;;;;;10.16;100.00;98018.34;2487485;29;20050;-77
2023/01/05 03:42:38;;;;;;;0.30;0.30;;;;;;;10.07;100.00;98015.19;2487311;29;20073;-77
2023/01/05 03:43:55;;;;;;;0.77;0.50;;;;;;;10.27;100.00;98020.59;2487514;29;20054;-82
2023/01/05 03:45:12;;;;;;;0.60;0.40;;;;;;;10.11;100.00;98024.63;2487313;29;20585;-78
2023/01/05 03:46:27;;;;;;;0.35;0.35;;;;;;;10.01;100.00;98035.38;2487580;29;20068;-77
2023/01/05 03:47:43;;;;;;;0.35;0.30;;;;;;;9.98;100.00;98030.25;2487342;29;20141;-79
2023/01/05 03:48:58;;;;;;;0.20;0.20;;;;;;;10.07;100.00;98023.03;2487371;29;20054;-78
2023/01/05 03:50:14;;;;;;;1.50;0.50;;;;;;;9.88;100.00;98018.38;2487264;29;20407;-77
2023/01/05 03:51:30;;;;;;;0.85;0.47;;;;;;;9.97;100.00;98030.28;2487691;29;20113;-77
2023/01/05 03:52:45;;;;;;;0.68;0.47;;;;;;;10.03;100.00;98020.50;2487712;29;20074;-77
2023/01/05 03:54:01;;;;;;;1.38;0.40;;;;;;;9.89;100.00;98013.13;2487749;29;20057;-77
2023/01/05 03:55:17;;;;;;;1.20;0.50;;;;;;;9.97;100.00;98018.09;2487188;29;20066;-81
2023/01/05 03:56:32;;;;;;;0.38;0.30;;;;;;;9.81;100.00;98019.50;2487762;29;20077;-79
2023/01/05 03:57:48;;;;;;;0.40;0.40;;;;;;;9.82;100.00;98023.81;2487642;29;20141;-78
2023/01/05 03:59:03;;;;;;;0.40;0.40;;;;;;;9.90;100.00;98021.78;2487766;29;20063;-78
2023/01/05 04:00:19;;;;;;;0.38;0.30;;;;;;;9.84;100.00;98022.84;2487703;29;20157;-77
2023/01/05 04:01:34;;;;;;;0.90;0.60;;;;;;;9.75;100.00;98020.53;2487727;29;20154;-77
2023/01/05 04:02:51;;;;;;;0.65;0.63;;;;;;;9.82;100.00;98029.03;2479191;29;20153;-78
2023/01/05 04:04:06;;;;;;;0.88;0.57;;;;;;;9.79;100.00;98018.69;2483135;29;20541;-77
2023/01/05 04:05:22;;;;;;;0.70;0.70;;;;;;;9.80;100.00;98009.94;2489345;29;20061;-77
2023/01/05 04:06:38;;;;;;;0.70;0.60;;;;;;;9.92;100.00;98003.44;2489501;29;20058;-76
2023/01/05 04:07:53;;;;;;;1.05;0.60;;;;;;;9.88;100.00;98007.91;2489182;29;20085;-77
2023/01/05 04:09:09;;;;;;;0.30;0.30;;;;;;;9.76;100.00;97998.72;2489148;29;20051;-77
2023/01/05 04:10:24;;;;;;;1.13;0.47;;;;;;;9.75;100.00;97992.63;2488113;29;20054;-77
2023/01/05 04:11:40;;;;;;;1.10;0.52;;;;;;;9.85;100.00;97982.75;2489277;29;20051;-79
2023/01/05 04:12:56;;;;;;;0.88;0.52;;;;;;;9.84;100.00;97995.84;2489381;29;20057;-78
2023/01/05 04:14:11;;;;;;;1.08;0.50;;;;;;;9.83;100.00;97988.91;2489322;29;20053;-76
2023/01/05 04:15:27;;;;;;;2.17;0.95;;;;;;;9.81;100.00;97990.72;2489288;29;20418;-77
2023/01/05 04:16:43;;;;;;;0.63;0.50;;;;;;;9.94;100.00;98004.25;2489057;29;20528;-77
2023/01/05 04:17:58;;;;;;;0.43;0.43;;;;;;;9.89;100.00;98020.97;2489327;29;20058;-77
2023/01/05 04:19:14;;;;;;;1.45;0.65;;;;;;;9.86;100.00;98017.56;2488992;29;20422;-78
2023/01/05 04:20:29;;;;;;;0.93;0.60;;;;;;;10.07;100.00;98028.25;2489195;29;20646;-77
2023/01/05 04:21:45;;;;;;;1.20;0.60;;;;;;;9.94;100.00;98026.03;2489204;29;20773;-77
2023/01/05 04:23:00;;;;;;;1.52;0.75;;;;;;;9.97;100.00;97973.63;2489058;29;20070;-78
2023/01/05 04:24:16;;;;;;;2.05;0.70;;;;;;;9.99;100.00;97966.59;2489513;29;20224;-78
2023/01/05 04:25:31;;;;;;;0.73;0.50;;;;;;;9.95;100.00;97990.28;2488929;29;20058;-77
2023/01/05 04:26:47;;;;;;;0.88;0.60;;;;;;;9.90;100.00;98003.50;2488734;29;20050;-78
2023/01/05 04:28:03;;;;;;;1.83;0.52;;;;;;;9.88;100.00;98018.38;2489223;29;20054;-77
2023/01/05 04:29:18;;;;;;;0.70;0.60;;;;;;;9.82;100.00;98013.34;2489181;29;20100;-77
2023/01/05 04:30:34;;;;;;;1.98;0.52;;;;;;;9.74;100.00;98009.22;2488524;29;20061;-77
2023/01/05 04:31:50;;;;;;;0.60;0.60;;;;;;;9.87;100.00;98012.31;2489208;29;20062;-77
2023/01/05 04:33:05;;;;;;;0.50;0.50;;;;;;;10.10;100.00;98012.47;2489534;29;20055;-78
2023/01/05 04:34:21;;;;;;;0.40;0.40;;;;;;;9.93;100.00;98016.50;2489371;29;20050;-77
2023/01/05 04:35:36;;;;;;;3.90;0.52;;;;;;;9.71;100.00;98006.69;2488821;29;20059;-77
2023/01/05 04:36:52;;;;;;;0.40;0.40;;;;;;;9.82;100.00;98008.13;2489205;29;20054;-81
2023/01/05 04:38:08;;;;;;;0.30;0.30;;;;;;;9.81;100.00;98003.81;2489261;29;20054;-77
2023/01/05 04:39:23;;;;;;;0.30;0.30;;;;;;;9.57;100.00;98007.16;2488999;29;20050;-77
2023/01/05 04:40:39;;;;;;;0.30;0.30;;;;;;;9.70;100.00;98006.75;2489222;29;20145;-78
2023/01/05 04:41:54;;;;;;;0.55;0.50;;;;;;;10.01;100.00;98004.00;2489297;29;20135;-77
2023/01/05 04:43:10;;;;;;;0.22;0.22;;;;;;;10.10;100.00;98002.84;2489173;29;20114;-77
2023/01/05 04:44:26;;;;;;;0.40;0.40;;;;;;;9.91;100.00;98005.19;2489058;29;20062;-81
2023/01/05 04:45:41;;;;;;;0.73;0.40;;;;;;;9.89;100.00;98005.28;2489168;29;20054;-78
2023/01/05 04:46:57;;;;;;;0.60;0.50;;;;;;;9.78;100.00;98006.50;2488861;29;20058;-78
2023/01/05 04:48:12;;;;;;;0.80;0.40;;;;;;;9.95;100.00;98001.59;2489093;29;20058;-83
2023/01/05 04:49:28;;;;;;;0.50;0.45;;;;;;;9.89;100.00;98007.00;2488855;29;20114;-80
2023/01/05 04:50:44;;;;;;;0.50;0.50;;;;;;;10.15;100.00;98006.19;2489154;29;20781;-78
2023/01/05 04:51:59;;;;;;;0.47;0.40;;;;;;;10.22;100.00;97995.50;2489132;29;20055;-77
2023/01/05 04:53:15;;;;;;;0.38;0.38;;;;;;;10.35;100.00;98006.41;2488995;29;20061;-78
2023/01/05 04:54:31;;;;;;;2.05;0.98;;;;;;;10.01;100.00;98003.16;2487174;29;20050;-78
2023/01/05 04:55:46;;;;;;;0.60;0.60;;;;;;;10.19;100.00;98004.28;2488651;29;20046;-78
2023/01/05 04:57:03;;;;;;;0.70;0.70;;;;;;;10.17;100.00;98011.34;2488775;29;20063;-77
2023/01/05 04:58:19;;;;;;;0.52;0.40;;;;;;;10.10;100.00;98009.84;2488708;29;20078;-78
2023/01/05 04:59:34;;;;;;;0.52;0.50;;;;;;;10.08;100.00;97998.59;2488773;29;20060;-78
2023/01/05 05:00:50;;;;;;;1.08;0.50;;;;;;;10.15;100.00;98010.53;2488519;29;20065;-78
2023/01/05 05:02:05;;;;;;;1.13;0.40;;;;;;;10.00;100.00;98012.75;2488256;29;20046;-77
2023/01/05 05:03:21;;;;;;;0.40;0.40;;;;;;;10.14;100.00;98016.69;2488567;29;20520;-77
2023/01/05 05:04:36;;;;;;;0.73;0.60;;;;;;;10.23;100.00;98024.22;2488681;29;20062;-77
2023/01/05 05:05:52;;;;;;;0.47;0.40;;;;;;;10.32;100.00;98017.84;2488612;29;20572;-77
2023/01/05 05:07:08;;;;;;;1.58;0.80;;;;;;;10.48;100.00;98014.72;2488374;29;20574;-78
2023/01/05 05:08:23;;;;;;;0.40;0.40;;;;;;;10.30;100.00;98014.41;2488668;29;20062;-78
2023/01/05 05:09:39;;;;;;;0.90;0.40;;;;;;;10.42;100.00;98015.78;2488397;29;20550;-78
2023/01/05 05:10:54;;;;;;;1.55;0.50;;;;;;;10.47;100.00;98021.69;2488605;29;20150;-79
2023/01/05 05:12:10;;;;;;;1.40;0.30;;;;;;;10.33;100.00;98016.91;2489068;29;20062;-77
2023/01/05 05:13:26;;;;;;;0.40;0.40;;;;;;;10.23;100.00;98026.84;2488547;29;20050;-77
2023/01/05 05:14:41;;;;;;;0.50;0.50;;;;;;;10.26;100.00;98018.88;2488821;29;20051;-77
2023/01/05 05:15:56;;;;;;;0.63;0.50;;;;;;;10.39;100.00;98018.47;2488936;29;20554;-76
2023/01/05 05:17:12;;;;;;;0.55;0.50;;;;;;;10.58;100.00;98031.81;2488788;29;20513;-77
2023/01/05 05:18:28;;;;;;;0.70;0.50;;;;;;;10.65;100.00;98014.97;2488654;29;20070;-79
2023/01/05 05:19:43;;;;;;;0.40;0.40;;;;;;;10.34;100.00;98018.63;2488026;29;20058;-77
2023/01/05 05:20:59;;;;;;;0.40;0.40;;;;;;;10.29;100.00;98024.00;2488775;29;20086;-78
2023/01/05 05:22:14;;;;;;;0.70;0.40;;;;;;;10.26;100.00;98018.03;2488744;29;20129;-76
2023/01/05 05:23:30;;;;;;;0.68;0.68;;;;;;;10.31;100.00;98029.22;2488700;29;20391;-78
2023/01/05 05:24:46;;;;;;;2.38;0.40;;;;;;;10.04;100.00;98029.22;2488751;29;20054;-76
2023/01/05 05:26:01;;;;;;;0.63;0.30;;;;;;;10.13;100.00;98033.28;2488485;29;20061;-77
2023/01/05 05:27:17;;;;;;;0.40;0.30;;;;;;;10.43;100.00;98039.28;2488621;29;20050;-77
2023/01/05 05:28:33;;;;;;;1.02;0.50;;;;;;;10.32;100.00;98034.38;2488669;29;20422;-76
2023/01/05 05:29:48;;;;;;;0.30;0.30;;;;;;;10.34;100.00;98042.19;2488449;29;20107;-76
2023/01/05 05:31:04;;;;;;;0.30;0.30;;;;;;;10.47;100.00;98040.03;2488459;29;20373;-76
2023/01/05 05:32:20;;;;;;;0.60;0.40;;;;;;;10.51;100.00;98038.16;2488929;29;20964;-77
2023/01/05 05:33:37;;;;;;;0.47;0.40;;;;;;;10.37;100.00;98038.63;2488404;29;20224;-77
2023/01/05 05:34:52;;;;;;;0.65;0.20;;;;;;;10.09;100.00;98045.59;2488331;29;20089;-77
2023/01/05 05:36:08;;;;;;;2.35;0.40;;;;;;;10.52;100.00;98037.25;2488438;29;20077;-77
2023/01/05 05:37:24;;;;;;;0.32;0.30;;;;;;;10.40;100.00;98043.75;2488409;29;20077;-77
2023/01/05 05:38:39;;;;;;;0.30;0.30;;;;;;;10.41;100.00;98045.47;2488555;29;20061;-76
2023/01/05 05:39:55;;;;;;;0.28;0.20;;;;;;;10.26;100.00;98052.03;2488298;29;20054;-77
2023/01/05 05:41:11;;;;;;;0.30;0.30;;;;;;;10.23;100.00;98045.16;2487995;29;20065;-76
2023/01/05 05:42:26;;;;;;;0.63;0.25;;;;;;;10.43;100.00;98046.28;2487990;29;20832;-79
2023/01/05 05:43:42;;;;;;;0.22;0.20;;;;;;;10.17;100.00;98047.97;2488391;29;20057;-77
2023/01/05 05:44:57;;;;;;;0.20;0.20;;;;;;;10.09;100.00;98042.97;2488436;29;20139;-77
2023/01/05 05:46:13;;;;;;;0.30;0.30;;;;;;;10.18;100.00;98044.44;2488150;29;20139;-77
2023/01/05 05:47:28;;;;;;;0.32;0.30;;;;;;;10.28;100.00;98050.25;2487937;29;20046;-78
2023/01/05 05:48:44;;;;;;;0.20;0.20;;;;;;;10.11;100.00;98048.19;2488733;29;20058;-77
2023/01/05 05:49:59;;;;;;;0.20;0.20;;;;;;;9.96;100.00;98050.38;2487358;29;20130;-77
2023/01/05 05:51:15;;;;;;;0.32;0.30;;;;;;;9.96;100.00;98052.13;2488538;29;20404;-77
2023/01/05 05:52:30;;;;;;;0.30;0.20;;;;;;;10.26;100.00;98058.13;2488309;29;20486;-78
2023/01/05 05:53:46;;;;;;;3.15;0.50;;;;;;;9.94;100.00;98057.44;2488430;29;20418;-77
2023/01/05 05:55:02;;;;;;;1.73;0.50;;;;;;;10.11;100.00;98056.03;2488071;29;20586;-78
2023/01/05 05:56:18;;;;;;;0.20;0.20;;;;;;;9.88;100.00;98052.38;2487802;29;20091;-77
2023/01/05 05:57:33;;;;;;;0.50;0.47;;;;;;;9.90;100.00;98068.88;2488329;29;20459;-78
2023/01/05 05:58:49;;;;;;;1.13;0.50;;;;;;;9.97;100.00;98051.22;2478193;29;20066;-78
2023/01/05 06:00:05;;;;;;;1.77;0.40;;;;;;;9.94;100.00;98049.56;2482296;29;20057;-77
2023/01/05 06:01:21;;;;;;;0.75;0.50;;;;;;;10.14;100.00;98048.94;2488285;29;20463;-78
2023/01/05 06:02:36;;;;;;;0.30;0.30;;;;;;;9.99;100.00;98058.13;2488294;29;20054;-79
2023/01/05 06:03:52;;;;;;;0.38;0.28;;;;;;;10.08;100.00;98064.81;2488222;29;20066;-77
2023/01/05 06:05:08;;;;;;;0.40;0.40;;;;;;;10.16;100.00;98061.94;2488256;29;20517;-78
2023/01/05 06:06:23;;;;;;;1.55;0.50;;;;;;;10.18;100.00;98057.53;2488174;29;20061;-78
2023/01/05 06:07:39;;;;;;;0.32;0.30;;;;;;;10.18;100.00;98061.00;2488110;29;20058;-77
2023/01/05 06:08:55;;;;;;;0.80;0.45;;;;;;;10.08;100.00;98071.81;2488509;29;20062;-77
2023/01/05 06:10:10;;;;;;;6.10;0.50;;;;;;;10.25;100.00;98071.25;2487965;29;20046;-77
2023/01/05 06:11:26;;;;;;;1.17;0.30;;;;;;;10.31;100.00;98069.28;2487824;29;20054;-77
2023/01/05 06:12:41;;;;;;;0.40;0.30;;;;;;;10.32;100.00;98075.41;2488411;29;20058;-77
2023/01/05 06:13:57;;;;;;;0.60;0.30;;;;;;;10.21;100.00;98081.00;2488230;29;20062;-79
2023/01/05 06:15:13;;;;;;;1.10;0.90;;;;;;;10.14;100.00;98074.22;2488481;29;20062;-79
2023/01/05 06:16:28;;;;;;;1.17;0.57;;;;;;;10.26;100.00;98081.69;2487686;29;20058;-79
2023/01/05 06:17:45;;;;;;;1.90;0.55;;;;;;;10.21;100.00;98080.13;2488319;29;20050;-79
2023/01/05 06:19:01;;;;;;;2.78;0.40;;;;;;;10.00;100.00;98085.16;2487663;29;20079;-78
2023/01/05 06:20:17;;;;;;;2.58;0.43;;;;;;;10.29;100.00;98086.81;2487526;29;20451;-82
2023/01/05 06:21:32;;;;;;;1.90;0.45;;;;;;;9.99;100.00;98089.50;2488355;29;20532;-79
2023/01/05 06:22:48;;;;;;;0.60;0.50;;;;;;;10.17;100.00;98093.31;2488484;29;20413;-79
2023/01/05 06:24:04;;;;;;;0.80;0.60;;;;;;;10.20;100.00;98092.38;2487842;29;20130;-83
2023/01/05 06:25:19;;;;;;;1.85;0.60;;;;;;;10.41;100.00;98097.81;2487679;29;20058;-79
2023/01/05 06:26:35;;;;;;;0.50;0.40;;;;;;;10.47;100.00;98102.84;2487988;29;20059;-78
2023/01/05 06:27:50;;;;;;;1.45;0.50;;;;;;;10.04;100.00;98105.06;2487906;29;20058;-79
2023/01/05 06:29:06;;;;;;;3.75;0.55;;;;;;;10.32;100.00;98098.94;2488456;29;20601;-78
2023/01/05 06:30:22;;;;;;;1.40;0.57;;;;;;;10.25;100.00;98103.53;2488676;29;20126;-79
2023/01/05 06:31:37;;;;;;;3.00;0.70;;;;;;;9.93;100.00;98105.41;2488149;29;20544;-79
2023/01/05 06:32:53;;;;;;;1.73;0.50;;;;;;;10.04;100.00;98099.81;2487467;29;20077;-81
2023/01/05 06:34:08;;;;;;;2.20;0.70;;;;;;;9.86;100.00;98099.50;2488162;29;20069;-80